Observations for Trim Patrick St
| Time | AQI | Temp °C | Hum % | Pres Pa | CO μg/m³ | H₂S μg/m³ | NO μg/m³ | NO₂ μg/m³ | O₃ μg/m³ | SO₂ μg/m³ | PM1 μg/m³ | PM2.5 μg/m³ | PM10 μg/m³ |
|---|---|---|---|---|---|---|---|---|---|---|---|---|---|
| Saturday 8 August 2026 | |||||||||||||
| 20:26 | 3 | 26.6 | 41 | 69,120 | 0 | 12.5 | 0.92 | 12.67 | 71.43 | 12.32 | 2.86 | 8.53 | 9.38 |
| 20:25 | 3 | 26.7 | 41 | 69,130 | 0 | 13.08 | 0.91 | 22.42 | 57.29 | 11.74 | 2 | 6.99 | 7.69 |
| 20:24 | 3 | 26.7 | 41 | 69,141 | 0 | 14.42 | 0.92 | 17.66 | 60.37 | 12.77 | 2 | 6.99 | 7.69 |
| 20:23 | 3 | 26.8 | 41 | 69,157 | 0 | 12.65 | 0.9 | 16.6 | 64.76 | 12.12 | 2.86 | 7.76 | 8.54 |
| 20:22 | 3 | 26.9 | 41 | 69,147 | 0 | 12.89 | 0.89 | 16.42 | 67.86 | 12.63 | 2.86 | 7.78 | 8.56 |
| 20:21 | 3 | 26.9 | 40 | 69,134 | 0 | 10.62 | 0.88 | 14.69 | 63.23 | 12.28 | 2 | 7.82 | 8.6 |
| 20:20 | 3 | 27 | 40 | 69,118 | 0 | 11.71 | 0.87 | 14.01 | 58.42 | 12.28 | 2.86 | 7.8 | 8.58 |
| 20:19 | 3 | 27 | 40 | 69,126 | 0 | 9.68 | 0.86 | 17.51 | 62.73 | 11.7 | 2 | 7.8 | 8.58 |
| 20:18 | 3 | 27.1 | 40 | 69,130 | 0 | 11.38 | 0.87 | 15.55 | 66.68 | 12.68 | 2 | 7.03 | 7.73 |
| 20:17 | 3 | 27.1 | 40 | 69,141 | 0 | 8.39 | 0.88 | 13.45 | 62.28 | 11.57 | 2 | 7.83 | 8.61 |
| 20:16 | 3 | 27.2 | 40 | 69,155 | 0 | 10.55 | 0.91 | 16.03 | 64.15 | 12.61 | 2 | 7.05 | 7.76 |
| 20:15 | 3 | 27.3 | 40 | 69,169 | 0 | 7.77 | 0.89 | 13.44 | 58.98 | 11.74 | 2 | 7.84 | 8.63 |
| 20:14 | 3 | 27.3 | 40 | 69,159 | 0 | 7.13 | 0.95 | 14.2 | 62.08 | 11.68 | 2.86 | 7.84 | 8.62 |
| 20:13 | 3 | 27.4 | 40 | 69,147 | 0 | 10.08 | 0.95 | 15.96 | 59.71 | 12.81 | 2 | 7.86 | 8.65 |
| 20:12 | 3 | 27.4 | 40 | 69,157 | 0 | 8.88 | 0.95 | 14 | 53.29 | 12.15 | 2 | 7.85 | 8.64 |
| 20:11 | 3 | 27.4 | 40 | 69,175 | 0 | 12.46 | 0.91 | 27.99 | 58.21 | 12.46 | 2.86 | 9.42 | 10.36 |
| 20:10 | 3 | 27.5 | 40 | 69,197 | 0 | 6.69 | 0.91 | 14.96 | 59.5 | 12.06 | 2 | 7.85 | 8.64 |
| 20:09 | 3 | 27.5 | 40 | 69,197 | 0 | 6.55 | 0.84 | 13.3 | 59.45 | 11.94 | 2 | 8.63 | 9.5 |
| 20:08 | 3 | 27.6 | 40 | 69,199 | 0 | 8.01 | 0.85 | 14.19 | 59.1 | 12.69 | 2 | 8.63 | 9.5 |
| 20:07 | 3 | 27.6 | 40 | 69,197 | 0 | 6.76 | 0.83 | 16.06 | 55.42 | 11.68 | 2.86 | 8.65 | 9.51 |